createdAt,value
2022-11-06T00:01:55.187Z,100929.63
2022-11-06T00:04:22.997Z,100921.72
2022-11-06T00:06:49.860Z,100923.47
2022-11-06T00:09:20.081Z,100915.47
2022-11-06T00:11:49.145Z,100895.38
2022-11-06T00:14:17.620Z,100901.31
2022-11-06T00:16:48.410Z,100897.50
2022-11-06T00:19:16.964Z,100901.31
2022-11-06T00:21:45.158Z,100895.72
2022-11-06T00:24:14.321Z,100904.75
2022-11-06T00:26:42.691Z,100892.50
2022-11-06T00:29:14.644Z,100883.13
2022-11-06T00:31:42.483Z,100882.78
2022-11-06T00:34:11.972Z,100888.72
2022-11-06T00:36:39.746Z,100885.38
2022-11-06T00:39:08.074Z,100879.03
2022-11-06T00:41:35.826Z,100865.56
2022-11-06T00:44:05.039Z,100864.94
2022-11-06T00:46:32.912Z,100874.19
2022-11-06T00:49:00.717Z,100866.66
2022-11-06T00:51:32.136Z,100856.09
2022-11-06T00:54:02.393Z,100845.53
2022-11-06T00:56:31.152Z,100839.81
2022-11-06T00:59:00.780Z,100827.03
2022-11-06T01:01:30.529Z,100828.22
2022-11-06T01:04:00.965Z,100825.72
2022-11-06T01:06:32.532Z,100821.84
2022-11-06T01:09:02.205Z,100822.28
2022-11-06T01:11:52.340Z,100812.72
2022-11-06T01:14:21.261Z,100803.25
2022-11-06T01:16:49.395Z,100797.56
2022-11-06T01:19:19.222Z,100801.50
2022-11-06T01:21:50.036Z,100810.88
2022-11-06T01:24:26.461Z,100806.16
2022-11-06T01:29:42.723Z,100804.31
2022-11-06T01:32:11.112Z,100804.19
2022-11-06T01:34:38.901Z,100793.44
2022-11-06T01:37:13.051Z,100799.06
2022-11-06T01:39:42.125Z,100799.50
2022-11-06T01:42:12.124Z,100798.63
2022-11-06T01:45:17.406Z,100787.75
2022-11-06T01:47:45.599Z,100792.34
2022-11-06T01:50:15.795Z,100789.13
2022-11-06T01:52:46.911Z,100789.13
2022-11-06T01:55:20.313Z,100791.28
2022-11-06T01:57:48.743Z,100784.69
2022-11-06T02:00:17.370Z,100771.69
2022-11-06T02:02:45.359Z,100772.25
2022-11-06T02:05:13.317Z,100773.66
2022-11-06T02:07:43.033Z,100765.66
2022-11-06T02:10:12.516Z,100770.84
2022-11-06T02:12:55.815Z,100773.19
2022-11-06T02:15:35.473Z,100762.22
2022-11-06T02:18:22.966Z,100766.09
2022-11-06T05:29:34.648Z,100453.38
2022-11-06T05:32:02.446Z,100453.50
2022-11-06T05:34:30.300Z,100446.72
2022-11-06T05:36:58.143Z,100452.38
2022-11-06T05:39:25.849Z,100445.97
2022-11-06T05:41:54.107Z,100444.66
2022-11-06T05:44:21.913Z,100443.88
2022-11-06T05:46:50.996Z,100439.00
2022-11-06T05:49:19.030Z,100436.84
2022-11-06T05:51:46.861Z,100432.28
2022-11-06T05:54:15.415Z,100416.09
2022-11-06T05:56:43.285Z,100409.81
2022-11-06T05:59:10.977Z,100418.53
2022-11-06T06:01:38.817Z,100405.81
2022-11-06T06:04:07.928Z,100398.31
2022-11-06T06:06:36.056Z,100389.22
2022-11-06T06:09:04.428Z,100392.94
2022-11-06T06:11:32.247Z,100392.75
2022-11-06T06:14:01.785Z,100384.75
2022-11-06T06:16:29.725Z,100377.25
2022-11-06T06:18:57.431Z,100364.50
2022-11-06T06:21:26.562Z,100370.41
2022-11-06T06:23:54.250Z,100374.69
2022-11-06T06:26:21.932Z,100385.44
2022-11-06T06:28:50.065Z,100390.97
2022-11-06T06:31:17.779Z,100385.53
2022-11-06T06:33:45.527Z,100387.31
2022-11-06T06:36:13.378Z,100387.72
2022-11-06T06:38:42.506Z,100383.50
2022-11-06T06:41:11.988Z,100374.84
2022-11-06T06:43:39.858Z,100377.25
2022-11-06T06:46:08.027Z,100375.31
2022-11-06T06:48:36.343Z,100355.00
2022-11-06T06:51:04.974Z,100353.81
2022-11-06T06:53:32.832Z,100347.81
2022-11-06T06:56:03.056Z,100342.50
2022-11-06T06:58:31.530Z,100336.19
2022-11-06T07:01:02.119Z,100334.06
2022-11-06T07:03:30.198Z,100335.56
2022-11-06T07:05:58.843Z,100332.31
2022-11-06T07:08:26.676Z,100338.59
2022-11-06T07:10:54.419Z,100334.25
2022-11-06T07:13:23.451Z,100325.47
2022-11-06T07:15:51.199Z,100321.63
2022-11-06T07:18:18.880Z,100325.63
2022-11-06T07:20:46.605Z,100341.03
2022-11-06T07:23:14.382Z,100336.75
2022-11-06T07:25:42.115Z,100333.53
2022-11-06T07:28:10.186Z,100329.91
2022-11-06T07:30:39.264Z,100333.06
2022-11-06T07:33:07.231Z,100334.25
2022-11-06T07:35:35.965Z,100328.72
2022-11-06T07:38:05.871Z,100329.91
2022-11-06T07:40:33.863Z,100322.56
2022-11-06T07:43:05.785Z,100330.09
2022-11-06T07:45:33.584Z,100329.69
2022-11-06T07:48:02.845Z,100332.06
2022-11-06T07:50:30.795Z,100320.56
2022-11-06T07:52:58.704Z,100321.47
2022-11-06T07:55:26.380Z,100326.53
2022-11-06T07:57:54.089Z,100332.53
2022-11-06T08:00:22.063Z,100337.28
2022-11-06T08:02:52.653Z,100333.53
2022-11-06T08:05:21.787Z,100330.06
2022-11-06T08:07:49.468Z,100330.13
2022-11-06T08:10:17.707Z,100322.28
2022-11-06T08:12:45.477Z,100327.41
2022-11-06T08:15:13.194Z,100324.25
2022-11-06T08:17:40.883Z,100318.03
2022-11-06T08:20:10.835Z,100317.25
2022-11-06T08:22:39.957Z,100320.22
2022-11-06T08:25:09.203Z,100310.66
2022-11-06T08:27:37.756Z,100323.44
2022-11-06T08:30:06.312Z,100306.66
2022-11-06T08:32:34.080Z,100308.59
2022-11-06T08:35:01.820Z,100304.75
2022-11-06T08:37:29.515Z,100301.09
2022-11-06T08:39:58.663Z,100298.25
2022-11-06T08:42:26.345Z,100300.84
2022-11-06T08:44:54.092Z,100296.63
2022-11-06T08:47:21.789Z,100300.97
2022-11-06T08:49:49.459Z,100300.91
2022-11-06T08:52:17.338Z,100296.50
2022-11-06T08:54:45.099Z,100289.41
2022-11-06T08:57:14.208Z,100288.03
2022-11-06T08:59:41.993Z,100286.94
2022-11-06T09:02:13.203Z,100288.41
2022-11-06T09:04:41.610Z,100284.69
2022-11-06T09:07:09.592Z,100280.75
2022-11-06T09:09:37.428Z,100276.88
2022-11-06T09:12:05.636Z,100275.84
2022-11-06T09:14:35.071Z,100278.66
2022-11-06T09:17:02.742Z,100270.75
2022-11-06T09:19:30.460Z,100306.34
2022-11-06T09:21:58.151Z,100334.34
2022-11-06T09:24:49.606Z,100321.06
2022-11-06T09:27:13.786Z,100313.78
2022-11-06T09:29:44.211Z,100302.59
2022-11-06T09:32:11.927Z,100304.66
2022-11-06T09:34:39.701Z,100301.56
2022-11-06T09:37:07.368Z,100304.38
2022-11-06T09:39:35.062Z,100300.19
2022-11-06T09:42:13.678Z,100288.31
2022-11-06T09:44:56.488Z,100283.75
2022-11-06T09:47:31.079Z,100286.59
2022-11-06T09:49:59.236Z,100288.69
2022-11-06T09:52:35.483Z,100277.22
2022-11-06T09:55:05.929Z,100274.03
2022-11-06T09:57:38.711Z,100265.56
2022-11-06T10:00:12.693Z,100258.50
2022-11-06T10:02:47.319Z,100247.72
2022-11-06T10:05:25.083Z,100244.34
2022-11-06T10:07:54.884Z,100256.13
2022-11-06T10:10:28.048Z,100243.97
2022-11-06T10:13:17.236Z,100257.06
2022-11-06T10:15:53.096Z,100263.53
2022-11-06T10:18:31.075Z,100255.47
2022-11-06T10:21:09.399Z,100247.19
2022-11-06T10:23:45.317Z,100267.16
2022-11-06T10:26:16.353Z,100277.16
2022-11-06T10:29:22.164Z,100274.88
2022-11-06T10:32:02.904Z,100283.94
2022-11-06T10:34:35.864Z,100290.19
2022-11-06T10:37:09.719Z,100295.16
2022-11-06T10:39:38.142Z,100289.16
2022-11-06T10:42:13.184Z,100282.84
2022-11-06T10:44:47.115Z,100285.41
2022-11-06T10:47:20.241Z,100272.03
2022-11-06T10:49:51.232Z,100280.22
2022-11-06T10:52:39.788Z,100279.44
2022-11-06T10:55:54.770Z,100273.69
2022-11-06T10:58:24.445Z,100276.31
2022-11-06T11:01:02.372Z,100276.53
2022-11-06T11:03:33.784Z,100276.69
2022-11-06T11:06:01.806Z,100281.44
2022-11-06T11:08:39.739Z,100263.47
2022-11-06T11:11:17.052Z,100253.72
2022-11-06T11:13:47.062Z,100256.41
2022-11-06T11:16:18.262Z,100268.25
2022-11-06T11:18:47.818Z,100263.66
2022-11-06T11:21:24.250Z,100265.38
2022-11-06T11:24:09.320Z,100263.41
2022-11-06T11:26:40.947Z,100264.22
2022-11-06T11:29:15.352Z,100252.88
2022-11-06T11:31:47.961Z,100253.84
2022-11-06T11:34:23.347Z,100259.84
2022-11-06T11:37:02.917Z,100238.28
2022-11-06T11:39:32.857Z,100256.44
2022-11-06T11:42:25.854Z,100263.91
2022-11-06T11:45:17.198Z,100265.56
2022-11-06T11:47:47.845Z,100258.47
2022-11-06T11:50:37.751Z,100255.19
2022-11-06T11:53:12.680Z,100249.69
2022-11-06T11:55:44.354Z,100251.25
2022-11-06T11:58:23.640Z,100250.06
2022-11-06T12:00:57.144Z,100247.13
2022-11-06T12:03:29.035Z,100253.38
2022-11-06T12:06:09.097Z,100242.47
2022-11-06T12:08:39.071Z,100253.13
2022-11-06T12:11:08.430Z,100247.88
2022-11-06T12:13:36.175Z,100237.34
2022-11-06T12:16:06.639Z,100232.56
2022-11-06T12:18:36.823Z,100231.66
2022-11-06T12:21:08.402Z,100230.22
2022-11-06T12:23:41.788Z,100230.75
2022-11-06T12:26:13.314Z,100225.81
2022-11-06T12:28:44.587Z,100224.59
2022-11-06T12:31:21.128Z,100221.19
2022-11-06T12:34:06.947Z,100211.78
2022-11-06T12:36:42.252Z,100217.16
2022-11-06T12:39:17.415Z,100218.84
2022-11-06T12:41:48.140Z,100223.97
2022-11-06T12:44:18.311Z,100230.13
2022-11-06T12:46:55.960Z,100226.69
2022-11-06T12:49:36.596Z,100221.88
2022-11-06T12:52:18.726Z,100215.69
2022-11-06T12:55:08.695Z,100212.84
2022-11-06T12:57:48.952Z,100215.34
2022-11-06T13:00:20.459Z,100200.63
2022-11-06T13:03:19.058Z,100201.81
2022-11-06T13:05:53.607Z,100198.75
2022-11-06T13:08:32.244Z,100202.50
2022-11-06T13:11:10.380Z,100190.28
2022-11-06T13:13:47.079Z,100182.81
2022-11-06T13:16:28.787Z,100193.50
2022-11-06T13:19:01.917Z,100197.03
2022-11-06T13:21:36.857Z,100202.16
2022-11-06T13:24:12.382Z,100204.13
2022-11-06T13:26:47.535Z,100204.75
2022-11-06T13:29:18.522Z,100198.81
2022-11-06T13:31:49.828Z,100181.53
2022-11-06T13:34:23.494Z,100202.63
2022-11-06T13:36:52.399Z,100197.91
2022-11-06T13:39:29.696Z,100204.97
2022-11-06T13:41:58.805Z,100205.13
2022-11-06T13:44:27.564Z,100205.94
2022-11-06T13:47:03.188Z,100206.38
2022-11-06T13:49:43.931Z,100209.50
2022-11-06T13:52:16.851Z,100213.34
2022-11-06T13:55:01.914Z,100214.44
2022-11-06T13:57:53.275Z,100214.47
2022-11-06T14:00:22.762Z,100215.78
2022-11-06T14:03:23.470Z,100225.66
2022-11-06T14:05:54.187Z,100221.59
2022-11-06T14:08:26.808Z,100223.06
2022-11-06T14:10:59.877Z,100223.44
2022-11-06T14:13:32.202Z,100226.53
2022-11-06T14:16:15.607Z,100242.63
2022-11-06T14:18:43.667Z,100239.13
2022-11-06T14:21:45.402Z,100236.78
2022-11-06T14:24:32.978Z,100224.81
2022-11-06T14:27:03.435Z,100245.78
2022-11-06T14:30:02.191Z,100242.63
2022-11-06T14:32:45.629Z,100245.78
2022-11-06T14:35:46.645Z,100246.50
2022-11-06T14:38:18.944Z,100245.19
2022-11-06T14:40:46.898Z,100246.72
2022-11-06T14:43:23.937Z,100251.75
2022-11-06T14:45:53.555Z,100256.94
2022-11-06T14:48:30.458Z,100254.38
2022-11-06T14:51:00.694Z,100260.72
2022-11-06T14:53:32.593Z,100251.81
2022-11-06T14:56:03.125Z,100256.38
2022-11-06T14:58:35.168Z,100269.19
2022-11-06T15:01:13.828Z,100269.66
2022-11-06T15:03:47.927Z,100271.69
2022-11-06T15:06:40.691Z,100271.63
2022-11-06T15:09:13.095Z,100278.38
2022-11-06T15:11:55.746Z,100281.28
2022-11-06T15:14:57.162Z,100280.06
2022-11-06T15:17:28.174Z,100286.75
2022-11-06T15:20:05.847Z,100281.53
2022-11-06T15:22:39.145Z,100291.50
2022-11-06T15:25:18.548Z,100292.09
2022-11-06T15:27:49.483Z,100288.16
2022-11-06T15:30:21.314Z,100292.09
2022-11-06T15:32:52.597Z,100298.03
2022-11-06T15:35:23.582Z,100303.81
2022-11-06T15:37:53.993Z,100305.59
2022-11-06T15:40:26.015Z,100310.13
2022-11-06T15:42:54.073Z,100301.84
2022-11-06T15:45:25.399Z,100304.78
2022-11-06T15:47:58.969Z,100309.16
2022-11-06T15:50:28.759Z,100318.28
2022-11-06T15:53:11.015Z,100316.31
2022-11-06T15:55:40.988Z,100323.19
2022-11-06T15:58:09.808Z,100316.84
2022-11-06T16:00:42.345Z,100329.09
2022-11-06T16:03:15.854Z,100331.25
2022-11-06T16:05:44.287Z,100327.13
2022-11-06T16:08:14.585Z,100330.31
2022-11-06T16:10:44.892Z,100328.75
2022-11-06T16:13:14.434Z,100334.25
2022-11-06T16:15:56.437Z,100340.13
2022-11-06T16:18:28.208Z,100347.53
2022-11-06T16:21:00.161Z,100348.44
2022-11-06T16:23:38.755Z,100348.31
2022-11-06T16:26:10.046Z,100346.22
2022-11-06T16:28:43.057Z,100354.53
2022-11-06T16:31:17.296Z,100348.19
2022-11-06T16:33:55.396Z,100359.56
2022-11-06T16:36:23.756Z,100363.13
2022-11-06T16:38:53.291Z,100359.91
2022-11-06T16:41:47.879Z,100368.00
2022-11-06T16:44:29.655Z,100373.25
2022-11-06T16:47:12.754Z,100370.03
2022-11-06T16:49:41.829Z,100376.94
2022-11-06T16:52:22.832Z,100381.59
2022-11-06T16:54:52.245Z,100380.94
2022-11-06T16:57:22.428Z,100386.50
2022-11-06T16:59:59.770Z,100393.69
2022-11-06T17:02:32.218Z,100389.88
2022-11-06T17:05:14.322Z,100386.91
2022-11-06T17:07:44.105Z,100392.56
2022-11-06T17:10:37.307Z,100394.66
2022-11-06T17:13:14.652Z,100400.25
2022-11-06T17:15:43.236Z,100416.38
2022-11-06T17:18:16.888Z,100417.31
2022-11-06T17:20:49.023Z,100407.13
2022-11-06T17:23:17.601Z,100419.56
2022-11-06T17:25:47.195Z,100422.66
2022-11-06T17:28:14.904Z,100425.16
2022-11-06T17:30:42.609Z,100427.16
2022-11-06T17:33:10.337Z,100427.38
2022-11-06T17:35:40.425Z,100427.13
2022-11-06T17:38:08.344Z,100434.22
2022-11-06T17:40:36.328Z,100421.69
2022-11-06T17:43:04.028Z,100433.81
2022-11-06T17:45:31.956Z,100436.59
2022-11-06T17:47:59.653Z,100445.38
2022-11-06T17:50:27.690Z,100447.06
2022-11-06T17:52:56.761Z,100461.44
2022-11-06T17:55:24.491Z,100456.50
2022-11-06T17:57:52.149Z,100460.44
2022-11-06T18:00:20.755Z,100470.59
2022-11-06T18:03:01.152Z,100462.88
2022-11-06T18:05:29.972Z,100474.06
2022-11-06T18:07:59.047Z,100467.47
2022-11-06T18:10:30.369Z,100467.75
2022-11-06T18:12:58.612Z,100479.91
2022-11-06T18:15:26.410Z,100478.09
2022-11-06T18:17:54.090Z,100477.56
2022-11-06T18:20:21.815Z,100486.22
2022-11-06T18:22:49.551Z,100481.34
2022-11-06T18:25:18.688Z,100483.66
2022-11-06T18:27:46.379Z,100499.53
2022-11-06T18:30:14.795Z,100495.25
2022-11-06T18:32:42.489Z,100494.22
2022-11-06T18:35:10.599Z,100490.38
2022-11-06T18:37:38.269Z,100504.66
2022-11-06T18:40:06.799Z,100494.28
2022-11-06T18:42:35.974Z,100505.00
2022-11-06T18:45:03.740Z,100506.94
2022-11-06T18:47:31.438Z,100513.47
2022-11-06T18:49:59.207Z,100507.66
2022-11-06T18:52:51.417Z,100508.47
2022-11-06T18:55:14.748Z,100510.50
2022-11-06T18:57:43.851Z,100517.72
2022-11-06T19:00:13.556Z,100512.69
2022-11-06T19:02:41.669Z,100518.13
2022-11-06T19:05:09.654Z,100518.28
2022-11-06T19:07:37.525Z,100515.56
2022-11-06T19:10:06.237Z,100523.75
2022-11-06T19:12:34.272Z,100512.78
2022-11-06T19:15:03.421Z,100522.97
2022-11-06T19:17:31.114Z,100513.25
2022-11-06T19:19:59.762Z,100517.63
2022-11-06T19:22:29.325Z,100517.19
2022-11-06T19:24:57.049Z,100515.34
2022-11-06T19:27:24.816Z,100520.50
2022-11-06T19:29:52.579Z,100519.66
2022-11-06T19:32:21.699Z,100517.72
2022-11-06T19:34:49.386Z,100516.59
2022-11-06T19:37:17.119Z,100514.25
2022-11-06T19:39:44.816Z,100529.00
2022-11-06T19:42:12.537Z,100535.78
2022-11-06T19:44:40.281Z,100519.44
2022-11-06T19:47:08.002Z,100525.03
2022-11-06T19:49:37.223Z,100536.28
2022-11-06T19:52:41.235Z,100532.84
2022-11-06T19:55:26.839Z,100537.03
2022-11-06T19:57:40.749Z,100529.78
2022-11-06T20:00:11.384Z,100541.66
2022-11-06T20:02:39.544Z,100533.03
2022-11-06T20:05:09.472Z,100531.34
2022-11-06T20:07:37.813Z,100532.00
2022-11-06T20:10:06.245Z,100527.31
2022-11-06T20:12:33.925Z,100535.53
2022-11-06T20:15:01.727Z,100540.56
2022-11-06T20:17:29.424Z,100540.28
2022-11-06T20:19:57.153Z,100543.91
2022-11-06T20:22:26.232Z,100546.88
2022-11-06T20:24:54.151Z,100543.91
2022-11-06T20:27:21.998Z,100545.66
2022-11-06T20:29:49.697Z,100543.00
2022-11-06T20:32:19.262Z,100546.75
2022-11-06T20:34:47.348Z,100558.75
2022-11-06T20:37:15.072Z,100550.81
2022-11-06T20:39:45.400Z,100557.34
2022-11-06T20:42:13.087Z,100559.41
2022-11-06T20:44:40.820Z,100558.09
2022-11-06T20:47:08.503Z,100566.28
2022-11-06T20:49:37.945Z,100568.22
2022-11-06T20:52:14.802Z,100570.16
2022-11-06T20:54:47.568Z,100564.78
2022-11-06T20:57:15.993Z,100567.16
2022-11-06T20:59:43.839Z,100571.94
2022-11-06T21:02:12.297Z,100572.34
2022-11-06T21:04:40.300Z,100574.44
2022-11-06T21:07:08.040Z,100572.44
2022-11-06T21:09:35.751Z,100574.06
2022-11-06T21:12:05.301Z,100580.44
2022-11-06T21:14:33.269Z,100579.41
2022-11-06T21:17:02.281Z,100574.97
2022-11-06T21:19:30.767Z,100583.31
2022-11-06T21:21:58.600Z,100578.91
2022-11-06T21:24:26.317Z,100581.16
2022-11-06T21:26:55.902Z,100576.19
2022-11-06T21:29:25.740Z,100566.44
2022-11-06T21:31:53.441Z,100568.69
2022-11-06T21:34:21.223Z,100573.78
2022-11-06T21:36:49.004Z,100580.63
2022-11-06T21:39:19.103Z,100586.09
2022-11-06T21:41:47.795Z,100595.41
2022-11-06T21:44:17.306Z,100588.06
2022-11-06T21:46:47.170Z,100588.19
2022-11-06T21:49:15.271Z,100596.81
2022-11-06T21:51:43.020Z,100595.88
2022-11-06T21:54:29.562Z,100602.00
2022-11-06T21:56:57.324Z,100600.94
2022-11-06T21:59:26.461Z,100611.97
2022-11-06T22:01:55.648Z,100606.44
2022-11-06T22:04:23.766Z,100602.84
2022-11-06T22:06:52.283Z,100593.41
2022-11-06T22:09:24.824Z,100601.38
2022-11-06T22:11:53.288Z,100591.84
2022-11-06T22:14:21.036Z,100594.94
2022-11-06T22:16:48.960Z,100599.56
2022-11-06T22:19:18.602Z,100597.34
2022-11-06T22:21:46.631Z,100595.84
2022-11-06T22:24:15.165Z,100599.38
2022-11-06T22:26:43.331Z,100607.50
2022-11-06T22:29:13.801Z,100598.38
2022-11-06T22:31:42.020Z,100594.94
2022-11-06T22:34:10.780Z,100599.50
2022-11-06T22:36:40.471Z,100607.69
2022-11-06T22:39:09.851Z,100600.75
2022-11-06T22:41:38.565Z,100593.84
2022-11-06T22:44:06.761Z,100587.38
2022-11-06T22:46:34.694Z,100598.03
2022-11-06T22:49:02.639Z,100601.16
2022-11-06T22:51:31.849Z,100595.00
2022-11-06T22:54:02.083Z,100597.06
2022-11-06T22:56:31.392Z,100589.88
2022-11-06T22:59:00.984Z,100598.28
2022-11-06T23:01:30.978Z,100586.84
2022-11-06T23:04:01.247Z,100587.59
2022-11-06T23:06:29.053Z,100581.69
2022-11-06T23:08:56.779Z,100575.44
2022-11-06T23:11:28.137Z,100571.50
2022-11-06T23:13:56.345Z,100576.31
2022-11-06T23:16:39.465Z,100574.50
2022-11-06T23:19:08.041Z,100566.09
2022-11-06T23:21:36.029Z,100563.50
2022-11-06T23:24:04.787Z,100562.44
2022-11-06T23:26:33.889Z,100575.28
2022-11-06T23:29:02.019Z,100563.31
2022-11-06T23:31:29.814Z,100569.31
2022-11-06T23:33:57.576Z,100570.34
2022-11-06T23:36:25.249Z,100566.50
2022-11-06T23:38:54.274Z,100556.72
2022-11-06T23:41:39.269Z,100561.13
2022-11-06T23:44:29.666Z,100559.66
2022-11-06T23:46:57.103Z,100550.28
2022-11-06T23:49:26.030Z,100551.66
2022-11-06T23:51:53.831Z,100553.72
2022-11-06T23:54:21.713Z,100560.97
2022-11-06T23:56:49.497Z,100554.78
2022-11-06T23:59:18.554Z,100554.66
